Glendive, MT

10:34 AM MDT on August 29, 2014 (GMT -0600)
Dawson Community | Change Station
CLOSE
Current Station
Airport
Location: Glendive,
Elevation: 2457 ft
Nearby Weather Stations

Elev 2457 ft 47.14 °N, 104.81 °W | Updated 19 minutes ago

Overcast
Overcast
61 °F
Feels Like 61 °F
N
13
Wind Variable Wind from NW

Today
High -- | Low -- °F
--% Chance of Precip.
Yesterday
High -- | Low -- °F
Precip. -- in
6:14 AM 7:44 PM
Waxing Crescent, 15% visible
Pressure 30.04 in
Visibility 10.0 miles
Clouds Overcast 1600 ft
Dew Point 55 °F
Humidity 82%
Rainfall 0.19 in
Snow Depth Not available.
UV 2 out of 12
Pollen 8.70 out of 12
Air Quality Not available.
Flu Activity Not available.
METAR KGDV 291615Z AUTO 32011KT 10SM OVC016 16/13 A3004 RMK AO1

More Conditions Fewer Conditions

Pressure 30.04 in
Visibility 10.0 miles
Clouds Overcast 1600 ft
Dew Point 55 °F
Humidity 82%
Rainfall 0.19 in
Snow Depth Not available.
UV 2 out of 12
Pollen 8.70 out of 12
Air Quality Not available.
Flu Activity Not available.
METAR KGDV 291615Z AUTO 32011KT 10SM OVC016 16/13 A3004 RMK AO1

More Conditions Fewer Conditions

10-Day Weather Forecast

Almanac

Astronomy

Aug. 29, 2014 Rise Set
Actual Time 6:14 AM MDT 7:44 PM MDT
Civil Twilight 5:42 AM MDT 8:16 PM MDT
Nautical Twilight 5:03 AM MDT 8:54 PM MDT
Astronomical Twilight 4:21 AM MDT 9:36 PM MDT
Moon 10:24 AM MDT 9:24 PM MDT
Length of Visible Light 14h 33m
Length of Day
13h 30m
Tomorrow will be 3m 15s shorter.
Waxing Crescent, 15% of the Moon is Illuminated
Today
Waxing Crescent
Sep 2
First Quarter
Sep 8
Full
Sep 15
Last Quarter
Sep 24
New

Today's Extremes

State Highs State Lows

Community

WunderPhotos

Upload Photos

1,748,284 photos uploaded!

Nearby

Snow Depth

Station Depth Elevation
Crystal Lake 0 in 6050 ft
Rocky Boy 0 in 4700 ft
Cole Creek 1 in 7850 ft
Burnt Mountain 0 in 5880 ft
Spur Park 0 in 8100 ft

Earthquake Activity

City Distance Mag. Time & Date
No recent earthquake activity has been reported nearby.
Minimum magnitude displayed is 2.5.

Coastal Water Temperatures

Place Temperature
No Stations Reporting

Nearby Weather Stations